sensor_id;sensor_type;location;lat;lon;timestamp;P1;durP1;ratioP1;P2;durP2;ratioP2
44885;SDS011;36669;51.428;21.162;2022-07-23T00:01:05;23.52;;;17.52;;
44885;SDS011;36669;51.428;21.162;2022-07-23T00:03:30;25.27;;;17.23;;
44885;SDS011;36669;51.428;21.162;2022-07-23T00:05:57;32.22;;;19.67;;
44885;SDS011;36669;51.428;21.162;2022-07-23T00:08:24;34.40;;;19.48;;
44885;SDS011;36669;51.428;21.162;2022-07-23T00:10:50;23.60;;;17.02;;
44885;SDS011;36669;51.428;21.162;2022-07-23T00:13:17;28.70;;;18.48;;
44885;SDS011;36669;51.428;21.162;2022-07-23T00:15:44;26.65;;;17.10;;
44885;SDS011;36669;51.428;21.162;2022-07-23T00:18:13;28.30;;;17.48;;
44885;SDS011;36669;51.428;21.162;2022-07-23T00:20:41;25.65;;;18.40;;
44885;SDS011;36669;51.428;21.162;2022-07-23T00:23:08;30.05;;;19.02;;
44885;SDS011;36669;51.428;21.162;2022-07-23T00:25:34;27.73;;;18.75;;
44885;SDS011;36669;51.428;21.162;2022-07-23T00:28:02;31.83;;;19.35;;
44885;SDS011;36669;51.428;21.162;2022-07-23T00:30:30;24.05;;;18.85;;
44885;SDS011;36669;51.428;21.162;2022-07-23T00:32:58;28.90;;;19.65;;
44885;SDS011;36669;51.428;21.162;2022-07-23T00:35:30;28.55;;;18.00;;
44885;SDS011;36669;51.428;21.162;2022-07-23T00:37:59;28.05;;;19.23;;
44885;SDS011;36669;51.428;21.162;2022-07-23T00:40:28;30.20;;;19.48;;
44885;SDS011;36669;51.428;21.162;2022-07-23T00:42:57;27.30;;;19.10;;
44885;SDS011;36669;51.428;21.162;2022-07-23T00:45:22;26.00;;;18.85;;
44885;SDS011;36669;51.428;21.162;2022-07-23T00:47:49;29.90;;;19.92;;
44885;SDS011;36669;51.428;21.162;2022-07-23T00:50:16;28.77;;;19.60;;
44885;SDS011;36669;51.428;21.162;2022-07-23T00:52:43;35.45;;;20.08;;
44885;SDS011;36669;51.428;21.162;2022-07-23T00:55:11;32.42;;;19.55;;
44885;SDS011;36669;51.428;21.162;2022-07-23T00:57:41;27.13;;;18.83;;
44885;SDS011;36669;51.428;21.162;2022-07-23T01:00:10;29.10;;;18.63;;
44885;SDS011;36669;51.428;21.162;2022-07-23T01:02:39;34.67;;;20.48;;
44885;SDS011;36669;51.428;21.162;2022-07-23T01:05:07;25.95;;;18.88;;
44885;SDS011;36669;51.428;21.162;2022-07-23T01:07:34;26.48;;;18.42;;
44885;SDS011;36669;51.428;21.162;2022-07-23T01:10:02;30.58;;;20.50;;
44885;SDS011;36669;51.428;21.162;2022-07-23T01:12:30;33.67;;;20.08;;
44885;SDS011;36669;51.428;21.162;2022-07-23T01:14:57;24.58;;;18.80;;
44885;SDS011;36669;51.428;21.162;2022-07-23T01:17:25;28.83;;;18.38;;
44885;SDS011;36669;51.428;21.162;2022-07-23T01:19:53;23.13;;;18.50;;
44885;SDS011;36669;51.428;21.162;2022-07-23T01:22:19;29.92;;;20.30;;
44885;SDS011;36669;51.428;21.162;2022-07-23T01:24:47;28.65;;;19.27;;
44885;SDS011;36669;51.428;21.162;2022-07-23T01:27:13;27.30;;;19.50;;
44885;SDS011;36669;51.428;21.162;2022-07-23T01:29:41;28.10;;;19.27;;
44885;SDS011;36669;51.428;21.162;2022-07-23T01:32:08;28.80;;;18.85;;
44885;SDS011;36669;51.428;21.162;2022-07-23T01:34:35;27.95;;;19.45;;
44885;SDS011;36669;51.428;21.162;2022-07-23T01:37:02;27.13;;;19.20;;
44885;SDS011;36669;51.428;21.162;2022-07-23T01:39:29;25.98;;;19.63;;
44885;SDS011;36669;51.428;21.162;2022-07-23T01:41:56;27.70;;;20.63;;
44885;SDS011;36669;51.428;21.162;2022-07-23T01:44:23;33.47;;;19.80;;
44885;SDS011;36669;51.428;21.162;2022-07-23T01:46:51;28.00;;;19.77;;
44885;SDS011;36669;51.428;21.162;2022-07-23T01:49:19;39.15;;;21.05;;
44885;SDS011;36669;51.428;21.162;2022-07-23T01:51:46;27.63;;;19.25;;
44885;SDS011;36669;51.428;21.162;2022-07-23T01:54:12;25.88;;;19.25;;
44885;SDS011;36669;51.428;21.162;2022-07-23T01:56:39;30.70;;;20.35;;
44885;SDS011;36669;51.428;21.162;2022-07-23T01:59:06;29.80;;;20.73;;
44885;SDS011;36669;51.428;21.162;2022-07-23T02:01:34;30.88;;;21.30;;
44885;SDS011;36669;51.428;21.162;2022-07-23T02:04:01;27.55;;;20.33;;
44885;SDS011;36669;51.428;21.162;2022-07-23T02:06:28;26.20;;;20.25;;
44885;SDS011;36669;51.428;21.162;2022-07-23T02:08:55;28.80;;;20.02;;
44885;SDS011;36669;51.428;21.162;2022-07-23T02:11:21;29.50;;;20.35;;
44885;SDS011;36669;51.428;21.162;2022-07-23T02:13:49;31.48;;;20.27;;
44885;SDS011;36669;51.428;21.162;2022-07-23T02:16:16;31.45;;;20.60;;
44885;SDS011;36669;51.428;21.162;2022-07-23T02:18:43;29.80;;;20.10;;
44885;SDS011;36669;51.428;21.162;2022-07-23T02:21:11;29.83;;;20.80;;
44885;SDS011;36669;51.428;21.162;2022-07-23T02:23:39;28.55;;;21.83;;
44885;SDS011;36669;51.428;21.162;2022-07-23T02:26:06;29.10;;;20.88;;
44885;SDS011;36669;51.428;21.162;2022-07-23T02:28:33;31.58;;;21.15;;
44885;SDS011;36669;51.428;21.162;2022-07-23T02:31:00;26.27;;;20.98;;
44885;SDS011;36669;51.428;21.162;2022-07-23T02:33:27;30.98;;;22.10;;
44885;SDS011;36669;51.428;21.162;2022-07-23T02:35:54;30.25;;;20.95;;
44885;SDS011;36669;51.428;21.162;2022-07-23T02:38:22;31.30;;;22.95;;
44885;SDS011;36669;51.428;21.162;2022-07-23T02:40:49;31.85;;;22.67;;
44885;SDS011;36669;51.428;21.162;2022-07-23T02:43:16;31.00;;;21.63;;
44885;SDS011;36669;51.428;21.162;2022-07-23T02:45:43;31.15;;;21.08;;
44885;SDS011;36669;51.428;21.162;2022-07-23T02:48:11;26.13;;;21.30;;
44885;SDS011;36669;51.428;21.162;2022-07-23T02:50:39;27.55;;;21.58;;
44885;SDS011;36669;51.428;21.162;2022-07-23T02:53:08;27.80;;;22.38;;
44885;SDS011;36669;51.428;21.162;2022-07-23T02:55:35;31.27;;;21.00;;
44885;SDS011;36669;51.428;21.162;2022-07-23T02:58:03;30.20;;;20.05;;
44885;SDS011;36669;51.428;21.162;2022-07-23T03:00:31;29.33;;;21.08;;
44885;SDS011;36669;51.428;21.162;2022-07-23T03:02:59;34.30;;;21.23;;
44885;SDS011;36669;51.428;21.162;2022-07-23T03:05:27;28.98;;;20.45;;
44885;SDS011;36669;51.428;21.162;2022-07-23T03:07:55;28.88;;;20.60;;
44885;SDS011;36669;51.428;21.162;2022-07-23T03:10:23;31.38;;;21.02;;
44885;SDS011;36669;51.428;21.162;2022-07-23T03:12:49;31.15;;;21.13;;
44885;SDS011;36669;51.428;21.162;2022-07-23T03:15:16;31.10;;;21.88;;
44885;SDS011;36669;51.428;21.162;2022-07-23T03:17:43;34.17;;;22.40;;
44885;SDS011;36669;51.428;21.162;2022-07-23T03:20:10;28.08;;;22.25;;
44885;SDS011;36669;51.428;21.162;2022-07-23T03:22:36;30.73;;;22.75;;
44885;SDS011;36669;51.428;21.162;2022-07-23T03:25:02;28.15;;;23.20;;
44885;SDS011;36669;51.428;21.162;2022-07-23T03:27:29;30.55;;;21.85;;
44885;SDS011;36669;51.428;21.162;2022-07-23T03:29:57;29.33;;;22.15;;
44885;SDS011;36669;51.428;21.162;2022-07-23T03:32:24;29.98;;;21.83;;
44885;SDS011;36669;51.428;21.162;2022-07-23T03:34:51;30.75;;;22.17;;
44885;SDS011;36669;51.428;21.162;2022-07-23T03:37:20;32.75;;;22.88;;
44885;SDS011;36669;51.428;21.162;2022-07-23T03:39:47;25.40;;;20.80;;
44885;SDS011;36669;51.428;21.162;2022-07-23T03:42:14;32.03;;;21.38;;
44885;SDS011;36669;51.428;21.162;2022-07-23T03:44:42;33.35;;;22.35;;
44885;SDS011;36669;51.428;21.162;2022-07-23T03:47:09;32.45;;;22.90;;
44885;SDS011;36669;51.428;21.162;2022-07-23T03:49:37;26.95;;;21.92;;
44885;SDS011;36669;51.428;21.162;2022-07-23T03:52:04;33.75;;;21.77;;
44885;SDS011;36669;51.428;21.162;2022-07-23T03:54:31;27.80;;;22.67;;
44885;SDS011;36669;51.428;21.162;2022-07-23T03:56:58;30.67;;;22.83;;
44885;SDS011;36669;51.428;21.162;2022-07-23T03:59:25;31.90;;;21.27;;
44885;SDS011;36669;51.428;21.162;2022-07-23T04:01:51;34.38;;;21.00;;
44885;SDS011;36669;51.428;21.162;2022-07-23T04:04:18;29.23;;;22.40;;
44885;SDS011;36669;51.428;21.162;2022-07-23T04:06:45;29.73;;;22.52;;
44885;SDS011;36669;51.428;21.162;2022-07-23T04:09:12;33.10;;;21.90;;
44885;SDS011;36669;51.428;21.162;2022-07-23T04:11:40;29.45;;;21.85;;
44885;SDS011;36669;51.428;21.162;2022-07-23T04:14:07;31.05;;;21.85;;
44885;SDS011;36669;51.428;21.162;2022-07-23T04:16:32;32.85;;;21.15;;
44885;SDS011;36669;51.428;21.162;2022-07-23T04:18:59;29.73;;;20.60;;
44885;SDS011;36669;51.428;21.162;2022-07-23T04:21:26;27.10;;;20.60;;
44885;SDS011;36669;51.428;21.162;2022-07-23T04:23:54;25.85;;;18.95;;
44885;SDS011;36669;51.428;21.162;2022-07-23T04:26:21;27.20;;;19.98;;
44885;SDS011;36669;51.428;21.162;2022-07-23T04:28:48;25.65;;;18.65;;
44885;SDS011;36669;51.428;21.162;2022-07-23T04:31:14;25.58;;;18.52;;
44885;SDS011;36669;51.428;21.162;2022-07-23T04:33:42;25.20;;;19.08;;
44885;SDS011;36669;51.428;21.162;2022-07-23T04:36:09;29.83;;;19.75;;
44885;SDS011;36669;51.428;21.162;2022-07-23T04:38:35;24.55;;;18.38;;
44885;SDS011;36669;51.428;21.162;2022-07-23T04:41:03;24.00;;;17.80;;
44885;SDS011;36669;51.428;21.162;2022-07-23T04:43:30;24.95;;;18.17;;
44885;SDS011;36669;51.428;21.162;2022-07-23T04:45:57;22.60;;;18.10;;
44885;SDS011;36669;51.428;21.162;2022-07-23T04:48:23;25.38;;;18.05;;
44885;SDS011;36669;51.428;21.162;2022-07-23T04:50:51;23.70;;;18.25;;
44885;SDS011;36669;51.428;21.162;2022-07-23T04:53:17;22.17;;;17.77;;
44885;SDS011;36669;51.428;21.162;2022-07-23T04:55:43;25.27;;;17.95;;
44885;SDS011;36669;51.428;21.162;2022-07-23T04:58:11;23.98;;;17.55;;
44885;SDS011;36669;51.428;21.162;2022-07-23T05:00:39;23.92;;;16.45;;
44885;SDS011;36669;51.428;21.162;2022-07-23T05:03:05;21.90;;;17.30;;
44885;SDS011;36669;51.428;21.162;2022-07-23T05:05:32;21.48;;;17.13;;
44885;SDS011;36669;51.428;21.162;2022-07-23T05:07:59;24.38;;;16.55;;
44885;SDS011;36669;51.428;21.162;2022-07-23T05:10:25;22.65;;;17.33;;
44885;SDS011;36669;51.428;21.162;2022-07-23T05:12:52;28.42;;;17.20;;
44885;SDS011;36669;51.428;21.162;2022-07-23T05:15:19;20.98;;;16.63;;
44885;SDS011;36669;51.428;21.162;2022-07-23T05:17:46;25.40;;;17.42;;
44885;SDS011;36669;51.428;21.162;2022-07-23T05:20:14;25.40;;;16.95;;
44885;SDS011;36669;51.428;21.162;2022-07-23T05:22:41;24.58;;;18.10;;
44885;SDS011;36669;51.428;21.162;2022-07-23T05:25:08;25.25;;;17.48;;
44885;SDS011;36669;51.428;21.162;2022-07-23T05:27:35;23.73;;;16.70;;
44885;SDS011;36669;51.428;21.162;2022-07-23T05:30:02;23.10;;;16.08;;
44885;SDS011;36669;51.428;21.162;2022-07-23T05:32:31;23.15;;;15.90;;
44885;SDS011;36669;51.428;21.162;2022-07-23T05:34:59;22.25;;;15.93;;
44885;SDS011;36669;51.428;21.162;2022-07-23T05:37:27;22.63;;;16.23;;
44885;SDS011;36669;51.428;21.162;2022-07-23T05:39:55;23.55;;;15.43;;
44885;SDS011;36669;51.428;21.162;2022-07-23T05:42:28;19.23;;;15.07;;
44885;SDS011;36669;51.428;21.162;2022-07-23T05:44:55;22.60;;;14.95;;
44885;SDS011;36669;51.428;21.162;2022-07-23T05:47:24;22.08;;;14.68;;
44885;SDS011;36669;51.428;21.162;2022-07-23T05:49:51;18.92;;;14.73;;
44885;SDS011;36669;51.428;21.162;2022-07-23T05:52:18;21.05;;;14.52;;
44885;SDS011;36669;51.428;21.162;2022-07-23T05:54:44;20.65;;;13.88;;
44885;SDS011;36669;51.428;21.162;2022-07-23T05:57:12;21.08;;;14.15;;
44885;SDS011;36669;51.428;21.162;2022-07-23T05:59:37;27.77;;;14.10;;
44885;SDS011;36669;51.428;21.162;2022-07-23T06:02:04;23.83;;;14.85;;
44885;SDS011;36669;51.428;21.162;2022-07-23T06:04:32;17.67;;;13.68;;
44885;SDS011;36669;51.428;21.162;2022-07-23T06:06:58;18.02;;;13.25;;
44885;SDS011;36669;51.428;21.162;2022-07-23T06:09:25;19.60;;;12.50;;
44885;SDS011;36669;51.428;21.162;2022-07-23T06:11:50;16.00;;;13.20;;
44885;SDS011;36669;51.428;21.162;2022-07-23T06:14:17;17.70;;;13.30;;
44885;SDS011;36669;51.428;21.162;2022-07-23T06:16:43;19.95;;;12.95;;
44885;SDS011;36669;51.428;21.162;2022-07-23T06:19:11;16.02;;;13.07;;
44885;SDS011;36669;51.428;21.162;2022-07-23T06:21:41;22.95;;;13.95;;
44885;SDS011;36669;51.428;21.162;2022-07-23T06:24:08;17.65;;;12.85;;
44885;SDS011;36669;51.428;21.162;2022-07-23T06:26:35;18.02;;;13.70;;
44885;SDS011;36669;51.428;21.162;2022-07-23T06:29:02;19.52;;;13.82;;
44885;SDS011;36669;51.428;21.162;2022-07-23T06:31:30;22.00;;;13.23;;
44885;SDS011;36669;51.428;21.162;2022-07-23T06:33:57;18.20;;;12.35;;
44885;SDS011;36669;51.428;21.162;2022-07-23T06:36:24;16.98;;;12.50;;
44885;SDS011;36669;51.428;21.162;2022-07-23T06:38:51;20.42;;;13.07;;
44885;SDS011;36669;51.428;21.162;2022-07-23T06:41:17;21.77;;;13.10;;
44885;SDS011;36669;51.428;21.162;2022-07-23T06:43:45;18.02;;;12.18;;
44885;SDS011;36669;51.428;21.162;2022-07-23T06:46:13;19.55;;;13.13;;
44885;SDS011;36669;51.428;21.162;2022-07-23T06:48:44;21.60;;;12.60;;
44885;SDS011;36669;51.428;21.162;2022-07-23T06:51:11;19.23;;;12.73;;
44885;SDS011;36669;51.428;21.162;2022-07-23T06:53:38;18.48;;;12.70;;
44885;SDS011;36669;51.428;21.162;2022-07-23T06:56:05;18.33;;;13.93;;
44885;SDS011;36669;51.428;21.162;2022-07-23T06:58:33;17.40;;;12.02;;
44885;SDS011;36669;51.428;21.162;2022-07-23T07:00:58;20.65;;;11.38;;
44885;SDS011;36669;51.428;21.162;2022-07-23T07:03:24;19.13;;;12.48;;
44885;SDS011;36669;51.428;21.162;2022-07-23T07:05:52;19.13;;;11.93;;
44885;SDS011;36669;51.428;21.162;2022-07-23T07:08:19;17.95;;;12.10;;
44885;SDS011;36669;51.428;21.162;2022-07-23T07:10:46;15.20;;;11.18;;
44885;SDS011;36669;51.428;21.162;2022-07-23T07:13:14;18.70;;;11.55;;
44885;SDS011;36669;51.428;21.162;2022-07-23T07:15:41;14.25;;;11.15;;
44885;SDS011;36669;51.428;21.162;2022-07-23T07:18:08;19.85;;;11.15;;
44885;SDS011;36669;51.428;21.162;2022-07-23T07:20:36;14.93;;;10.57;;
44885;SDS011;36669;51.428;21.162;2022-07-23T07:23:02;12.15;;;10.10;;
44885;SDS011;36669;51.428;21.162;2022-07-23T07:25:31;14.95;;;10.98;;
44885;SDS011;36669;51.428;21.162;2022-07-23T07:27:59;17.02;;;11.18;;
44885;SDS011;36669;51.428;21.162;2022-07-23T07:30:26;14.25;;;10.02;;
44885;SDS011;36669;51.428;21.162;2022-07-23T07:32:54;12.20;;;10.43;;
44885;SDS011;36669;51.428;21.162;2022-07-23T07:35:22;15.32;;;9.85;;
44885;SDS011;36669;51.428;21.162;2022-07-23T07:37:51;12.50;;;9.82;;
44885;SDS011;36669;51.428;21.162;2022-07-23T07:40:19;11.85;;;8.75;;
44885;SDS011;36669;51.428;21.162;2022-07-23T07:42:50;12.63;;;9.00;;
44885;SDS011;36669;51.428;21.162;2022-07-23T07:45:20;11.82;;;9.43;;
44885;SDS011;36669;51.428;21.162;2022-07-23T07:47:47;13.55;;;9.80;;
44885;SDS011;36669;51.428;21.162;2022-07-23T07:50:14;13.38;;;9.82;;
44885;SDS011;36669;51.428;21.162;2022-07-23T07:52:41;11.95;;;8.82;;
44885;SDS011;36669;51.428;21.162;2022-07-23T07:55:11;14.80;;;9.65;;
44885;SDS011;36669;51.428;21.162;2022-07-23T07:57:39;16.63;;;9.43;;
44885;SDS011;36669;51.428;21.162;2022-07-23T08:00:08;12.40;;;8.40;;
44885;SDS011;36669;51.428;21.162;2022-07-23T08:02:44;12.95;;;8.65;;
44885;SDS011;36669;51.428;21.162;2022-07-23T08:05:25;14.50;;;9.23;;
44885;SDS011;36669;51.428;21.162;2022-07-23T08:07:52;14.83;;;8.97;;
44885;SDS011;36669;51.428;21.162;2022-07-23T08:10:19;10.80;;;7.88;;
44885;SDS011;36669;51.428;21.162;2022-07-23T08:12:47;9.65;;;6.75;;
44885;SDS011;36669;51.428;21.162;2022-07-23T08:15:16;10.88;;;7.95;;
44885;SDS011;36669;51.428;21.162;2022-07-23T08:17:45;10.88;;;7.05;;
44885;SDS011;36669;51.428;21.162;2022-07-23T08:20:33;10.13;;;6.78;;
44885;SDS011;36669;51.428;21.162;2022-07-23T08:23:06;7.25;;;6.05;;
44885;SDS011;36669;51.428;21.162;2022-07-23T08:25:35;7.32;;;5.70;;
44885;SDS011;36669;51.428;21.162;2022-07-23T08:28:13;7.68;;;5.32;;
44885;SDS011;36669;51.428;21.162;2022-07-23T08:30:41;10.23;;;5.55;;
44885;SDS011;36669;51.428;21.162;2022-07-23T08:33:14;6.65;;;5.15;;
44885;SDS011;36669;51.428;21.162;2022-07-23T08:35:42;11.55;;;5.22;;
44885;SDS011;36669;51.428;21.162;2022-07-23T08:38:16;10.65;;;5.30;;
44885;SDS011;36669;51.428;21.162;2022-07-23T08:40:45;6.05;;;5.00;;
44885;SDS011;36669;51.428;21.162;2022-07-23T08:43:14;8.00;;;4.97;;
44885;SDS011;36669;51.428;21.162;2022-07-23T08:45:58;6.50;;;5.38;;
44885;SDS011;36669;51.428;21.162;2022-07-23T08:48:31;8.93;;;5.68;;
44885;SDS011;36669;51.428;21.162;2022-07-23T08:51:04;8.18;;;5.63;;
44885;SDS011;36669;51.428;21.162;2022-07-23T08:53:36;8.48;;;5.85;;
44885;SDS011;36669;51.428;21.162;2022-07-23T08:56:03;7.78;;;5.57;;
44885;SDS011;36669;51.428;21.162;2022-07-23T08:58:30;7.80;;;5.43;;
44885;SDS011;36669;51.428;21.162;2022-07-23T09:01:01;8.43;;;5.60;;
44885;SDS011;36669;51.428;21.162;2022-07-23T09:03:30;10.05;;;5.80;;
44885;SDS011;36669;51.428;21.162;2022-07-23T09:05:59;9.65;;;5.43;;
44885;SDS011;36669;51.428;21.162;2022-07-23T09:08:47;10.45;;;5.82;;
44885;SDS011;36669;51.428;21.162;2022-07-23T09:11:16;6.55;;;5.32;;
44885;SDS011;36669;51.428;21.162;2022-07-23T09:13:54;7.25;;;5.97;;
44885;SDS011;36669;51.428;21.162;2022-07-23T09:16:24;8.35;;;5.72;;
44885;SDS011;36669;51.428;21.162;2022-07-23T09:18:59;7.75;;;5.57;;
44885;SDS011;36669;51.428;21.162;2022-07-23T09:21:37;8.75;;;5.68;;
44885;SDS011;36669;51.428;21.162;2022-07-23T09:24:10;12.20;;;5.60;;
44885;SDS011;36669;51.428;21.162;2022-07-23T09:26:44;10.00;;;5.78;;
44885;SDS011;36669;51.428;21.162;2022-07-23T09:29:17;9.27;;;5.70;;
44885;SDS011;36669;51.428;21.162;2022-07-23T09:32:03;8.07;;;5.70;;
44885;SDS011;36669;51.428;21.162;2022-07-23T09:34:33;8.63;;;5.22;;
44885;SDS011;36669;51.428;21.162;2022-07-23T09:37:16;6.63;;;6.03;;
44885;SDS011;36669;51.428;21.162;2022-07-23T09:39:45;9.82;;;5.57;;
44885;SDS011;36669;51.428;21.162;2022-07-23T09:42:23;10.15;;;5.90;;
44885;SDS011;36669;51.428;21.162;2022-07-23T09:44:53;8.55;;;5.75;;
44885;SDS011;36669;51.428;21.162;2022-07-23T09:47:20;7.40;;;5.65;;
44885;SDS011;36669;51.428;21.162;2022-07-23T09:52:35;8.75;;;5.68;;
44885;SDS011;36669;51.428;21.162;2022-07-23T09:55:13;10.50;;;5.63;;
44885;SDS011;36669;51.428;21.162;2022-07-23T09:57:41;7.35;;;5.15;;
44885;SDS011;36669;51.428;21.162;2022-07-23T10:00:09;7.45;;;5.65;;
44885;SDS011;36669;51.428;21.162;2022-07-23T10:02:39;8.60;;;4.90;;
44885;SDS011;36669;51.428;21.162;2022-07-23T10:05:07;6.18;;;4.93;;
44885;SDS011;36669;51.428;21.162;2022-07-23T10:07:37;8.65;;;5.20;;
44885;SDS011;36669;51.428;21.162;2022-07-23T10:10:06;10.05;;;5.20;;
44885;SDS011;36669;51.428;21.162;2022-07-23T10:12:33;7.43;;;4.80;;
44885;SDS011;36669;51.428;21.162;2022-07-23T10:15:00;8.85;;;5.97;;
44885;SDS011;36669;51.428;21.162;2022-07-23T10:17:30;10.45;;;5.47;;
44885;SDS011;36669;51.428;21.162;2022-07-23T10:19:56;9.93;;;5.53;;
44885;SDS011;36669;51.428;21.162;2022-07-23T10:22:31;7.30;;;5.32;;
44885;SDS011;36669;51.428;21.162;2022-07-23T10:25:48;8.30;;;4.93;;
44885;SDS011;36669;51.428;21.162;2022-07-23T10:37:04;7.20;;;5.25;;
44885;SDS011;36669;51.428;21.162;2022-07-23T10:42:52;8.07;;;5.55;;
44885;SDS011;36669;51.428;21.162;2022-07-23T10:45:35;7.40;;;5.18;;
44885;SDS011;36669;51.428;21.162;2022-07-23T10:59:24;6.88;;;5.43;;
44885;SDS011;36669;51.428;21.162;2022-07-23T11:01:51;9.48;;;5.57;;
44885;SDS011;36669;51.428;21.162;2022-07-23T11:04:18;9.50;;;5.55;;
44885;SDS011;36669;51.428;21.162;2022-07-23T11:09:25;11.63;;;5.20;;
44885;SDS011;36669;51.428;21.162;2022-07-23T11:15:00;6.88;;;5.15;;
44885;SDS011;36669;51.428;21.162;2022-07-23T11:20:23;5.13;;;4.63;;
44885;SDS011;36669;51.428;21.162;2022-07-23T11:22:58;8.73;;;5.00;;
44885;SDS011;36669;51.428;21.162;2022-07-23T11:25:31;8.45;;;4.97;;
44885;SDS011;36669;51.428;21.162;2022-07-23T11:28:10;7.20;;;4.88;;
44885;SDS011;36669;51.428;21.162;2022-07-23T11:30:43;9.10;;;4.78;;
44885;SDS011;36669;51.428;21.162;2022-07-23T11:35:40;6.30;;;4.72;;
44885;SDS011;36669;51.428;21.162;2022-07-23T11:38:21;5.97;;;4.78;;
44885;SDS011;36669;51.428;21.162;2022-07-23T11:40:52;7.80;;;4.70;;
44885;SDS011;36669;51.428;21.162;2022-07-23T11:43:21;6.83;;;4.43;;
44885;SDS011;36669;51.428;21.162;2022-07-23T11:45:51;7.55;;;4.55;;
44885;SDS011;36669;51.428;21.162;2022-07-23T11:48:27;6.05;;;4.90;;
44885;SDS011;36669;51.428;21.162;2022-07-23T11:50:56;5.68;;;4.70;;
44885;SDS011;36669;51.428;21.162;2022-07-23T11:53:31;5.75;;;4.50;;
44885;SDS011;36669;51.428;21.162;2022-07-23T11:56:09;6.68;;;4.85;;
44885;SDS011;36669;51.428;21.162;2022-07-23T11:58:36;6.95;;;4.65;;
44885;SDS011;36669;51.428;21.162;2022-07-23T12:01:05;4.78;;;4.22;;
44885;SDS011;36669;51.428;21.162;2022-07-23T12:03:35;8.10;;;4.45;;
44885;SDS011;36669;51.428;21.162;2022-07-23T12:06:02;6.25;;;4.38;;
44885;SDS011;36669;51.428;21.162;2022-07-23T12:08:27;9.35;;;4.65;;
44885;SDS011;36669;51.428;21.162;2022-07-23T12:10:54;6.88;;;4.78;;
44885;SDS011;36669;51.428;21.162;2022-07-23T12:13:22;9.52;;;4.70;;
44885;SDS011;36669;51.428;21.162;2022-07-23T12:15:50;9.52;;;6.22;;
44885;SDS011;36669;51.428;21.162;2022-07-23T12:18:23;6.80;;;4.65;;
44885;SDS011;36669;51.428;21.162;2022-07-23T12:20:53;7.65;;;4.68;;
44885;SDS011;36669;51.428;21.162;2022-07-23T12:23:24;6.65;;;4.15;;
44885;SDS011;36669;51.428;21.162;2022-07-23T12:25:53;11.73;;;4.25;;
44885;SDS011;36669;51.428;21.162;2022-07-23T12:31:01;7.85;;;3.88;;
44885;SDS011;36669;51.428;21.162;2022-07-23T12:33:32;4.90;;;3.92;;
44885;SDS011;36669;51.428;21.162;2022-07-23T12:36:01;4.82;;;3.92;;
44885;SDS011;36669;51.428;21.162;2022-07-23T12:38:51;6.72;;;4.25;;
44885;SDS011;36669;51.428;21.162;2022-07-23T12:41:17;6.18;;;3.85;;
44885;SDS011;36669;51.428;21.162;2022-07-23T12:43:44;5.22;;;4.07;;
44885;SDS011;36669;51.428;21.162;2022-07-23T12:46:20;6.43;;;4.43;;
44885;SDS011;36669;51.428;21.162;2022-07-23T12:48:51;7.50;;;4.30;;
44885;SDS011;36669;51.428;21.162;2022-07-23T12:51:22;5.28;;;3.75;;
44885;SDS011;36669;51.428;21.162;2022-07-23T12:54:09;5.88;;;4.10;;
44885;SDS011;36669;51.428;21.162;2022-07-23T12:56:37;5.72;;;3.70;;
44885;SDS011;36669;51.428;21.162;2022-07-23T13:01:35;8.32;;;4.13;;
44885;SDS011;36669;51.428;21.162;2022-07-23T13:04:09;6.65;;;4.25;;
44885;SDS011;36669;51.428;21.162;2022-07-23T13:07:18;5.70;;;4.45;;
44885;SDS011;36669;51.428;21.162;2022-07-23T13:09:38;4.93;;;4.38;;
44885;SDS011;36669;51.428;21.162;2022-07-23T13:12:04;8.75;;;4.25;;
44885;SDS011;36669;51.428;21.162;2022-07-23T13:14:31;6.75;;;4.75;;
44885;SDS011;36669;51.428;21.162;2022-07-23T13:16:58;12.90;;;4.72;;
44885;SDS011;36669;51.428;21.162;2022-07-23T13:19:25;8.55;;;4.68;;
44885;SDS011;36669;51.428;21.162;2022-07-23T13:21:52;7.25;;;3.85;;
44885;SDS011;36669;51.428;21.162;2022-07-23T13:24:27;7.07;;;4.20;;
44885;SDS011;36669;51.428;21.162;2022-07-23T13:26:55;10.70;;;4.88;;
44885;SDS011;36669;51.428;21.162;2022-07-23T13:29:23;5.82;;;4.30;;
44885;SDS011;36669;51.428;21.162;2022-07-23T13:31:51;7.47;;;4.55;;
44885;SDS011;36669;51.428;21.162;2022-07-23T13:34:18;6.78;;;4.85;;
44885;SDS011;36669;51.428;21.162;2022-07-23T13:36:44;8.25;;;4.40;;
44885;SDS011;36669;51.428;21.162;2022-07-23T13:39:12;8.05;;;4.55;;
44885;SDS011;36669;51.428;21.162;2022-07-23T13:41:40;6.50;;;4.90;;
44885;SDS011;36669;51.428;21.162;2022-07-23T13:44:06;6.68;;;4.40;;
44885;SDS011;36669;51.428;21.162;2022-07-23T13:46:34;6.75;;;4.50;;
44885;SDS011;36669;51.428;21.162;2022-07-23T13:49:01;6.22;;;4.45;;
44885;SDS011;36669;51.428;21.162;2022-07-23T13:51:29;6.32;;;4.38;;
44885;SDS011;36669;51.428;21.162;2022-07-23T13:53:57;8.05;;;4.40;;
44885;SDS011;36669;51.428;21.162;2022-07-23T13:56:25;6.88;;;4.32;;
44885;SDS011;36669;51.428;21.162;2022-07-23T13:58:52;6.35;;;4.68;;
44885;SDS011;36669;51.428;21.162;2022-07-23T14:01:18;6.97;;;4.57;;
44885;SDS011;36669;51.428;21.162;2022-07-23T14:03:46;9.82;;;4.38;;
44885;SDS011;36669;51.428;21.162;2022-07-23T14:06:13;7.05;;;4.50;;
44885;SDS011;36669;51.428;21.162;2022-07-23T14:08:40;7.88;;;5.13;;
44885;SDS011;36669;51.428;21.162;2022-07-23T14:11:07;4.80;;;4.40;;
44885;SDS011;36669;51.428;21.162;2022-07-23T14:13:35;10.93;;;4.97;;
44885;SDS011;36669;51.428;21.162;2022-07-23T14:16:03;7.68;;;4.70;;
44885;SDS011;36669;51.428;21.162;2022-07-23T14:18:30;8.85;;;4.90;;
44885;SDS011;36669;51.428;21.162;2022-07-23T14:20:57;7.57;;;4.88;;
44885;SDS011;36669;51.428;21.162;2022-07-23T14:23:26;7.13;;;5.03;;
44885;SDS011;36669;51.428;21.162;2022-07-23T14:25:53;7.75;;;5.05;;
44885;SDS011;36669;51.428;21.162;2022-07-23T14:28:20;7.82;;;4.90;;
44885;SDS011;36669;51.428;21.162;2022-07-23T14:30:47;7.13;;;5.38;;
44885;SDS011;36669;51.428;21.162;2022-07-23T14:33:13;7.45;;;4.97;;
44885;SDS011;36669;51.428;21.162;2022-07-23T14:35:42;8.93;;;5.93;;
44885;SDS011;36669;51.428;21.162;2022-07-23T14:38:07;7.70;;;5.20;;
44885;SDS011;36669;51.428;21.162;2022-07-23T14:40:34;9.00;;;5.13;;
44885;SDS011;36669;51.428;21.162;2022-07-23T14:43:02;8.15;;;5.35;;
44885;SDS011;36669;51.428;21.162;2022-07-23T14:45:28;9.07;;;5.50;;
44885;SDS011;36669;51.428;21.162;2022-07-23T14:47:57;9.45;;;5.80;;
44885;SDS011;36669;51.428;21.162;2022-07-23T14:50:24;8.25;;;5.55;;
44885;SDS011;36669;51.428;21.162;2022-07-23T14:52:51;9.05;;;5.47;;
44885;SDS011;36669;51.428;21.162;2022-07-23T14:55:18;7.28;;;5.97;;
44885;SDS011;36669;51.428;21.162;2022-07-23T14:57:47;7.50;;;6.22;;
44885;SDS011;36669;51.428;21.162;2022-07-23T15:00:13;9.77;;;5.80;;
44885;SDS011;36669;51.428;21.162;2022-07-23T15:02:40;10.27;;;5.95;;
44885;SDS011;36669;51.428;21.162;2022-07-23T15:05:09;7.45;;;5.78;;
44885;SDS011;36669;51.428;21.162;2022-07-23T15:07:36;9.43;;;5.88;;
44885;SDS011;36669;51.428;21.162;2022-07-23T15:10:03;9.40;;;5.80;;